x

Nickerson Bank (44251) Wave Buoy

12:00am - Wed 31st Aug 2016 All times are UTC.

  • Sig Wave height 9.8ft
  • Peak Period 9s
  • Wind
    9mph, 13mph gusts
  • Sea Temp 50°f
  • Air Temp 53°f
  • Sea Pressure 1011.1mb

More Historic Weather Station data

Upgrade to MSW Pro to gain access to the past 30 days of data for over 8000 Wavebouys and Weather Stations around the globe.

Join Pro

Comparision Forecast

View Surf forecast
   
Wed 08/31 12:00am 10ft 9s 9 13 mph 1011.1mb 50f 53f
Tue 08/30 11:00pm 10ft 10s 13 18 mph 1009.8mb 51f 54f
10:00pm 11ft 11s 22 27 mph 1008.1mb 52f 55f
9:00pm 11ft 9s 25 29 mph 1006.7mb 52f 55f
8:00pm 12.5ft 10s 22 27 mph 1005.6mb 50f 54f
7:00pm 13ft 10s 27
mph
1003.6mb 51f 54f
6:00pm 14.5ft 11s 29 38 mph 1002.6mb 49f 54f
5:00pm 15ft 12s 34 40 mph 1000.7mb 48f 54f
4:00pm 15ft 11s 27 34 mph 999.4mb 47f 53f
3:00pm 16.5ft 11s 36 43 mph 997.7mb 47f 52f
2:00pm 15.5ft 10s 34 43 mph 996.3mb 48f 53f
1:00pm 16.5ft 10s 34 40 mph 994.4mb 47f 54f
12:00pm 16.5ft 9s 36 45 mph 994.2mb 49f 55f
10:00am 11.5ft 8s 36 45 mph 994.8mb 53f 60f
9:00am 9.5ft 7s 34 40 mph 995.5mb 54f 61f
8:00am 9ft 6s 27 34 mph 996.3mb 56f 62f
7:00am 8ft 6s 27 31 mph 997.2mb 57f 63f
6:00am 7ft 6s 25 29 mph 998.9mb 56f 62f
5:00am 6ft 5s 18 27 mph 1000.9mb 55f 60f
4:00am 6ft 5s 27 31 mph 1003.6mb 54f 59f
3:00am 5ft 5s 22 29 mph 1006.5mb 55f 58f
2:00am 4.5ft 10s 20 25 mph 1008.5mb 55f 61f
1:00am 4ft 5s 13 16 mph 1010.5mb 55f 60f
12:00am 4.5ft 11s 13 16 mph 1012.2mb 55f 60f
Mon 08/29 11:00pm 4ft 11s 11 13 mph 1013.5mb 55f 60f
10:00pm 4ft 11s 16 20 mph 1013.9mb 55f 60f
9:00pm 3.5ft 11s 13 16 mph 1014.7mb 55f 61f
8:00pm 4ft 11s 13 16 mph 1015.2mb 55f 61f
7:00pm 3.5ft 11s 13 16 mph 1016.2mb 55f 61f
6:00pm 3.5ft 11s 13 16 mph 1016.9mb 55f 61f
5:00pm 3.5ft 11s 13 18 mph 1017.6mb 55f 61f
4:00pm 3.5ft 12s 13 16 mph 1018.6mb 56f 62f
3:00pm 3.5ft 12s 13 16 mph 1019.2mb 56f 62f
2:00pm 3.5ft 12s 13 16 mph 1019.6mb 54f 62f
1:00pm 3.5ft 12s 11 13 mph 1019.8mb 55f 61f
12:00pm 2.5ft 12s 9
mph
1020.1mb 54f 61f
11:00am 2.5ft 12s 9
mph
1020.2mb 54f 60f
10:00am 2.5ft 12s 7 9 mph 1020.6mb 54f 60f
9:00am 2.5ft 12s 7
mph
1020.6mb 54f 60f
8:00am 3ft 12s 7
mph
1020.8mb 54f 59f
7:00am 3ft 14s 7
mph
1020.8mb 54f 58f
6:00am 2.5ft 13s 7
mph
1021.2mb 54f 58f
5:00am 2.5ft 13s 9
mph
1021.4mb 55f 57f
4:00am 2.5ft 13s 7 9 mph 1021.9mb 56f 57f
3:00am 2.5ft 13s 7 9 mph 1022.3mb 56f 56f
2:00am 3ft 13s 4 7 mph 1022.3mb 55f 56f
1:00am 2.5ft 14s 7 11 mph 1022.4mb 56f 56f
12:00am 3ft 14s 11 16 mph 1022.3mb 56f 58f
Sun 08/28 11:00pm 3.5ft 12s 13 16 mph 1021.6mb 55f 60f
10:00pm 2.5ft 14s 18
mph
1021.1mb 56f 61f
9:00pm 3ft 13s 13 18 mph 1021mb 57f 60f
8:00pm 3ft 14s 13 16 mph 1020.8mb 56f 60f
7:00pm 3ft 14s 13 16 mph 1021mb 56f 60f
6:00pm 3ft 7s 13 16 mph 1021mb 56f 59f
5:00pm 3ft 7s 13 16 mph 1020.9mb 56f 58f
4:00pm 3ft 14s 16 18 mph 1021mb 56f 59f
3:00pm 2.5ft 7s 13 18 mph 1021mb 57f 58f
2:00pm 2.5ft 7s 13 18 mph 1020.9mb 58f 58f
1:00pm 3ft 15s 16 20 mph 1020.8mb 58f 58f
12:00pm 3ft 15s 18 22 mph 1020.6mb 59f 58f
11:00am 3.5ft 7s 18 20 mph 1020.4mb 59f 58f
10:00am 3.5ft 7s 18 20 mph 1019.9mb 59f 58f
9:00am 2.5ft 7s 16 20 mph 1019.4mb 59f 59f
8:00am 3ft 8s 11 13 mph 1019.1mb 59f 58f
7:00am 3ft 7s 16 18 mph 1018.9mb 59f 58f
6:00am 3ft 7s 13 18 mph 1018.7mb 59f 56f
5:00am 3ft 7s 16 18 mph 1018.6mb 59f 56f
4:00am 3ft 7s 13 18 mph 1018.4mb 59f 57f
3:00am 3.5ft 7s 11 13 mph 1018.2mb 59f 56f
2:00am 3.5ft 8s 16 18 mph 1017.8mb 59f 57f
1:00am 4ft 8s 11 13 mph 1017.2mb 59f 58f
12:00am 4ft 8s 9
mph
1016.5mb 59f 57f
Sat 08/27 11:00pm 4ft 7s 11 13 mph 1015.6mb 59f 58f
10:00pm 4ft 8s 9 11 mph 1014.5mb 59f 57f
9:00pm 4.5ft 8s 9 11 mph 1013.4mb 59f 57f
8:00pm 4.5ft 8s 18 22 mph 1012.3mb 60f 59f
7:00pm 5ft 8s 22 29 mph 1010.7mb 60f 59f
6:00pm 5ft 7s 18 20 mph 1009.4mb 60f 63f
5:00pm 5ft 7s 18 22 mph 1009mb 60f 63f
4:00pm 5ft 8s 18 22 mph 1009mb 60f 63f
3:00pm 5ft 7s 18 20 mph 1008.9mb 59f 63f
2:00pm 5ft 7s 18 20 mph 1008.7mb 59f 63f
1:00pm 6ft 7s 18 20 mph 1008.8mb 59f 63f
12:00pm 6ft 7s 20 25 mph 1008.7mb 59f 62f
11:00am 5ft 7s 22 27 mph 1009mb 59f 64f
10:00am 5ft 7s 22 27 mph 1009.3mb 59f 64f
9:00am 4.5ft 7s 18 25 mph 1009.3mb 59f 64f
8:00am 4.5ft 8s 16 18 mph 1010.3mb 59f 63f
7:00am 5ft 8s 18 22 mph 1011mb 59f 64f
6:00am 5ft 8s 18 20 mph 1011.4mb 59f 64f
5:00am 4.5ft 8s 16 18 mph 1012.4mb 59f 64f
4:00am 4.5ft 8s 16 18 mph 1013.1mb 59f 63f
3:00am 5ft 8s 16 20 mph 1014mb 59f 64f
2:00am 4.5ft 8s 16 18 mph 1014.1mb 60f 64f